Time;durP1;ratioP1;P1;durP2;ratioP2;P2;SDS_P1;SDS_P2;PMS_P1;PMS_P2;Temp;Humidity;BMP_temperature;BMP_pressure;BME280_temperature;BME280_humidity;BME280_pressure;Samples;Min_cycle;Max_cycle;Signal;HPM_P1;HPM_P2
2024/01/24 00:01:18;;;;;;;17.13;3.50;;;8.70;84.60;;;;;;5002798;28;20469;-75
2024/01/24 00:03:47;;;;;;;19.67;3.50;;;8.70;84.60;;;;;;5003986;28;21026;-73
2024/01/24 00:06:16;;;;;;;14.47;3.83;;;8.70;84.60;;;;;;5001568;28;20993;-74
2024/01/24 00:08:44;;;;;;;10.53;3.47;;;8.70;84.70;;;;;;5002086;28;20457;-75
2024/01/24 00:11:12;;;;;;;15.13;3.20;;;8.70;84.70;;;;;;5017884;28;20470;-75
2024/01/24 00:13:40;;;;;;;13.77;3.60;;;8.70;84.70;;;;;;4999383;28;20655;-75
2024/01/24 00:16:08;;;;;;;19.17;4.07;;;8.70;84.70;;;;;;5001659;28;20934;-75
2024/01/24 00:18:36;;;;;;;14.00;3.30;;;8.70;84.70;;;;;;5004495;28;20530;-75
2024/01/24 00:21:06;;;;;;;13.23;3.30;;;8.80;84.80;;;;;;5005288;28;20452;-74
2024/01/24 00:23:35;;;;;;;15.87;3.70;;;8.80;84.80;;;;;;4999649;28;20459;-75
2024/01/24 00:26:03;;;;;;;17.07;3.37;;;8.80;84.80;;;;;;5005163;28;20523;-74
2024/01/24 00:28:31;;;;;;;12.43;3.60;;;8.80;84.90;;;;;;5003209;28;20549;-74
2024/01/24 00:30:59;;;;;;;16.63;2.87;;;8.80;84.90;;;;;;5004368;28;20485;-74
2024/01/24 00:33:29;;;;;;;12.77;3.27;;;8.80;84.90;;;;;;5007081;28;20492;-74
2024/01/24 00:35:57;;;;;;;16.03;3.93;;;8.80;85.00;;;;;;5002326;28;20827;-73
2024/01/24 00:38:26;;;;;;;16.27;3.50;;;8.90;85.10;;;;;;5003626;28;20461;-73
2024/01/24 00:40:55;;;;;;;15.00;3.53;;;8.90;85.10;;;;;;5006026;28;20484;-73
2024/01/24 00:43:23;;;;;;;12.80;3.80;;;8.90;85.30;;;;;;5001557;28;20896;-74
2024/01/24 00:45:51;;;;;;;13.47;3.17;;;8.90;85.30;;;;;;5003669;28;20931;-74
2024/01/24 00:48:19;;;;;;;13.47;3.80;;;8.90;85.40;;;;;;5000907;28;20457;-75
2024/01/24 00:50:48;;;;;;;11.30;3.17;;;9.00;85.50;;;;;;5002555;28;20478;-74
2024/01/24 00:53:20;;;;;;;16.03;3.30;;;9.00;85.60;;;;;;5003791;28;20509;-74
2024/01/24 00:55:48;;;;;;;17.80;3.23;;;9.10;85.70;;;;;;5017443;28;20944;-74
2024/01/24 00:58:19;;;;;;;14.43;3.13;;;9.10;85.70;;;;;;5001696;28;20548;-74
2024/01/24 01:00:47;;;;;;;17.70;3.00;;;9.20;85.70;;;;;;5004237;28;20511;-75
2024/01/24 01:03:15;;;;;;;10.67;3.30;;;9.20;85.50;;;;;;5005894;28;20484;-75
2024/01/24 01:05:43;;;;;;;17.97;3.00;;;9.20;85.70;;;;;;5004263;28;20449;-74
2024/01/24 01:08:11;;;;;;;9.80;2.60;;;9.20;85.50;;;;;;5004038;28;20460;-74
2024/01/24 01:10:39;;;;;;;11.77;2.67;;;9.30;85.50;;;;;;5001813;28;21236;-74
2024/01/24 01:13:07;;;;;;;15.43;3.50;;;9.30;85.50;;;;;;5004174;28;20469;-74
2024/01/24 01:15:36;;;;;;;9.40;2.30;;;9.30;85.50;;;;;;5006349;28;20469;-74
2024/01/24 01:18:05;;;;;;;23.07;3.10;;;9.30;85.50;;;;;;5006408;28;20467;-74
2024/01/24 01:20:33;;;;;;;10.93;2.80;;;9.30;85.50;;;;;;5005411;28;20471;-74
2024/01/24 01:23:01;;;;;;;14.13;2.60;;;9.40;85.50;;;;;;5003080;28;20471;-74
2024/01/24 01:25:29;;;;;;;15.10;2.80;;;9.40;85.60;;;;;;5006567;28;20475;-74
2024/01/24 01:27:57;;;;;;;14.70;2.83;;;9.40;85.60;;;;;;5003863;28;20498;-74
2024/01/24 01:30:25;;;;;;;16.83;2.90;;;9.40;85.60;;;;;;5004466;28;20465;-74
2024/01/24 01:32:54;;;;;;;16.20;2.90;;;9.40;85.60;;;;;;5005650;28;20485;-74
2024/01/24 01:35:22;;;;;;;10.53;3.30;;;9.50;85.60;;;;;;5001147;28;20449;-74
2024/01/24 01:37:50;;;;;;;10.57;2.80;;;9.40;85.70;;;;;;5011038;28;20467;-74
2024/01/24 01:40:18;;;;;;;7.20;2.53;;;9.50;85.70;;;;;;5002867;28;20821;-74
2024/01/24 01:42:46;;;;;;;10.53;2.90;;;9.50;85.70;;;;;;5000983;28;20458;-74
2024/01/24 01:45:14;;;;;;;17.10;3.17;;;9.50;85.80;;;;;;5000559;28;20535;-74
2024/01/24 01:47:44;;;;;;;9.53;2.30;;;9.50;85.70;;;;;;4999698;28;20473;-74
2024/01/24 01:50:15;;;;;;;12.30;2.93;;;9.60;85.80;;;;;;5002578;28;20455;-75
2024/01/24 01:52:45;;;;;;;10.10;3.10;;;9.60;85.80;;;;;;5003994;28;20467;-74
2024/01/24 01:55:15;;;;;;;8.73;2.53;;;9.60;85.80;;;;;;4997017;28;20798;-74
2024/01/24 01:57:44;;;;;;;11.07;2.30;;;9.60;85.80;;;;;;5002676;28;20461;-74
2024/01/24 02:00:19;;;;;;;8.90;3.20;;;9.60;85.70;;;;;;5002794;28;20909;-75
2024/01/24 02:02:48;;;;;;;8.40;2.90;;;9.60;85.70;;;;;;5002188;28;20457;-75
2024/01/24 02:05:18;;;;;;;15.50;3.50;;;9.60;85.70;;;;;;5003297;28;20871;-76
2024/01/24 02:07:46;;;;;;;11.87;3.00;;;9.70;85.70;;;;;;5001406;28;20948;-75
2024/01/24 02:10:15;;;;;;;12.93;2.70;;;9.70;85.70;;;;;;5000706;28;20933;-76
2024/01/24 02:12:43;;;;;;;9.40;2.43;;;9.70;85.70;;;;;;5003408;28;20551;-76
2024/01/24 02:15:11;;;;;;;11.33;2.93;;;9.70;85.70;;;;;;5006704;28;20588;-75
2024/01/24 02:17:40;;;;;;;11.40;2.20;;;9.70;85.60;;;;;;5004093;28;20976;-76
2024/01/24 02:20:09;;;;;;;12.10;2.60;;;9.70;85.60;;;;;;5003463;28;20544;-76
2024/01/24 02:22:39;;;;;;;8.63;2.93;;;9.70;85.60;;;;;;4997948;28;20810;-75
2024/01/24 02:25:09;;;;;;;10.60;2.80;;;9.70;85.60;;;;;;5003843;28;20459;-75
2024/01/24 02:27:37;;;;;;;10.57;2.73;;;9.70;85.70;;;;;;5002152;28;20468;-76
2024/01/24 02:30:06;;;;;;;12.10;2.33;;;9.70;85.70;;;;;;5004992;28;20925;-75
2024/01/24 02:32:34;;;;;;;13.93;2.93;;;9.70;85.70;;;;;;5003861;28;20468;-75
2024/01/24 02:35:02;;;;;;;6.13;2.50;;;9.80;85.80;;;;;;5017636;28;20480;-75
2024/01/24 02:37:30;;;;;;;8.33;2.60;;;9.80;85.80;;;;;;5003707;28;21242;-75
2024/01/24 02:39:59;;;;;;;9.90;2.83;;;9.80;85.80;;;;;;5001867;28;20442;-75
2024/01/24 02:42:28;;;;;;;9.43;2.33;;;9.80;85.80;;;;;;5001172;28;20454;-75
2024/01/24 02:44:57;;;;;;;12.67;2.80;;;9.80;85.90;;;;;;4999488;28;20452;-74
2024/01/24 02:47:24;;;;;;;10.53;2.73;;;9.80;85.90;;;;;;5000358;28;20464;-74
2024/01/24 02:49:53;;;;;;;11.00;2.40;;;9.90;85.90;;;;;;5000098;28;20453;-74
2024/01/24 02:52:21;;;;;;;8.77;2.50;;;9.90;85.90;;;;;;5002790;28;20468;-74
2024/01/24 02:54:49;;;;;;;9.20;2.20;;;9.90;86.00;;;;;;5002084;28;20472;-75
2024/01/24 02:57:17;;;;;;;11.73;2.47;;;9.90;85.90;;;;;;5001405;28;20454;-74
2024/01/24 02:59:46;;;;;;;8.83;2.33;;;10.00;86.00;;;;;;5001419;28;20554;-75
2024/01/24 03:02:14;;;;;;;10.83;2.40;;;10.00;86.00;;;;;;4999523;28;20476;-75
2024/01/24 03:04:42;;;;;;;8.10;1.90;;;10.00;86.00;;;;;;5003257;28;20973;-74
2024/01/24 03:07:10;;;;;;;6.27;1.60;;;10.00;86.00;;;;;;5002820;28;20565;-75
2024/01/24 03:09:39;;;;;;;9.40;2.00;;;10.00;86.10;;;;;;4999515;28;20559;-75
2024/01/24 03:12:07;;;;;;;8.20;2.10;;;10.10;86.10;;;;;;5000139;28;20485;-75
2024/01/24 03:14:35;;;;;;;9.47;2.53;;;10.10;86.00;;;;;;5000987;28;20489;-75
2024/01/24 03:17:05;;;;;;;11.20;2.70;;;10.10;85.90;;;;;;5001612;28;20451;-75
2024/01/24 03:19:33;;;;;;;7.30;1.70;;;10.10;85.90;;;;;;5003623;28;20471;-74
2024/01/24 03:22:01;;;;;;;9.20;2.57;;;10.20;85.90;;;;;;5002925;28;20449;-74
2024/01/24 03:24:29;;;;;;;7.20;1.97;;;10.10;85.90;;;;;;5001932;28;20463;-74
2024/01/24 03:26:57;;;;;;;6.97;1.87;;;10.20;86.00;;;;;;5003503;28;20456;-75
2024/01/24 03:29:25;;;;;;;7.67;2.07;;;10.20;86.10;;;;;;5001835;28;20979;-75
2024/01/24 03:31:53;;;;;;;8.30;1.83;;;10.20;86.10;;;;;;4999771;28;20500;-74
2024/01/24 03:34:24;;;;;;;7.23;2.00;;;10.20;86.10;;;;;;5000497;28;20485;-74
2024/01/24 03:36:52;;;;;;;12.23;2.30;;;10.20;86.10;;;;;;5002074;28;20469;-74
2024/01/24 03:39:20;;;;;;;8.80;1.77;;;10.30;86.10;;;;;;5001873;28;20511;-74
2024/01/24 03:41:48;;;;;;;7.23;1.87;;;10.30;86.10;;;;;;5002574;28;20460;-74
2024/01/24 03:44:16;;;;;;;6.87;1.60;;;10.30;86.20;;;;;;5003206;28;20463;-74
2024/01/24 03:46:44;;;;;;;7.10;2.00;;;10.30;86.20;;;;;;4998903;28;20964;-74
2024/01/24 03:49:12;;;;;;;8.07;1.87;;;10.40;86.10;;;;;;4996966;28;20487;-74
2024/01/24 03:51:41;;;;;;;9.30;1.90;;;10.40;86.10;;;;;;4997743;28;20572;-74
2024/01/24 03:54:09;;;;;;;10.07;2.40;;;10.40;86.10;;;;;;5001482;28;20464;-75
2024/01/24 03:56:37;;;;;;;5.80;1.60;;;10.40;86.10;;;;;;5006875;28;20622;-74
2024/01/24 03:59:05;;;;;;;12.30;2.00;;;10.50;86.10;;;;;;4999187;28;20457;-74
2024/01/24 04:01:33;;;;;;;6.83;1.43;;;10.50;86.20;;;;;;5003232;28;20479;-74
2024/01/24 04:04:01;;;;;;;5.63;1.77;;;10.50;86.20;;;;;;4998665;28;20461;-72
2024/01/24 04:06:30;;;;;;;5.10;1.43;;;10.50;86.00;;;;;;5016701;28;20465;-75
2024/01/24 04:08:59;;;;;;;5.90;1.53;;;10.50;86.00;;;;;;5000421;28;20462;-74
2024/01/24 04:11:27;;;;;;;6.20;2.07;;;10.50;86.10;;;;;;4996013;28;20840;-76
2024/01/24 04:13:56;;;;;;;6.80;1.90;;;10.60;86.10;;;;;;5003495;28;21053;-74
2024/01/24 04:16:24;;;;;;;9.03;1.97;;;10.60;86.20;;;;;;5001963;28;20518;-75
2024/01/24 04:18:52;;;;;;;7.30;1.50;;;10.60;86.20;;;;;;5002985;28;20457;-76
2024/01/24 04:21:21;;;;;;;7.77;1.70;;;10.70;86.20;;;;;;5011496;28;20466;-76
2024/01/24 04:23:49;;;;;;;6.43;1.53;;;10.70;86.30;;;;;;5011769;28;20499;-75
2024/01/24 04:26:21;;;;;;;5.40;1.33;;;10.70;86.30;;;;;;5007456;28;20470;-76
2024/01/24 04:28:50;;;;;;;6.13;1.33;;;10.80;86.40;;;;;;5001547;28;20476;-76
2024/01/24 04:31:18;;;;;;;7.00;1.23;;;10.80;86.30;;;;;;5003907;28;20476;-74
2024/01/24 04:33:46;;;;;;;5.50;1.43;;;10.80;86.30;;;;;;5004780;28;20507;-75
2024/01/24 04:36:14;;;;;;;4.87;1.47;;;10.90;86.40;;;;;;5001294;28;20488;-75
2024/01/24 04:38:43;;;;;;;9.83;1.60;;;10.90;86.40;;;;;;5002980;28;20492;-75
2024/01/24 04:41:11;;;;;;;5.80;1.67;;;11.00;86.40;;;;;;5003011;28;20471;-75
2024/01/24 04:43:41;;;;;;;7.93;1.20;;;11.00;86.40;;;;;;5005084;28;20471;-75
2024/01/24 04:46:13;;;;;;;3.80;1.07;;;11.00;86.30;;;;;;5005319;28;20492;-75
2024/01/24 04:48:42;;;;;;;6.70;1.20;;;11.10;86.20;;;;;;5003317;28;20513;-73
2024/01/24 04:51:11;;;;;;;3.60;0.90;;;11.10;86.20;;;;;;5006507;28;20475;-75
2024/01/24 04:53:41;;;;;;;5.30;1.43;;;11.10;86.20;;;;;;5003427;28;20463;-76
2024/01/24 04:56:09;;;;;;;5.00;0.97;;;11.10;86.30;;;;;;5003483;28;20834;-74
2024/01/24 04:58:37;;;;;;;4.80;1.40;;;11.20;86.30;;;;;;5001554;28;20544;-75
2024/01/24 05:01:11;;;;;;;4.50;1.10;;;11.20;86.30;;;;;;5004973;28;20473;-75
2024/01/24 05:03:39;;;;;;;4.30;1.17;;;11.20;86.40;;;;;;5001176;28;20463;-75
2024/01/24 05:06:08;;;;;;;4.50;1.50;;;11.30;86.30;;;;;;5005090;28;20455;-75
2024/01/24 05:08:38;;;;;;;4.30;1.10;;;11.30;86.20;;;;;;5001786;28;20463;-75
2024/01/24 05:11:06;;;;;;;4.73;1.20;;;11.30;86.20;;;;;;5003408;28;20503;-75
2024/01/24 05:13:34;;;;;;;4.77;1.13;;;11.30;86.20;;;;;;5005329;28;20592;-75
2024/01/24 05:16:03;;;;;;;4.33;0.97;;;11.30;86.20;;;;;;5004692;28;20477;-74
2024/01/24 05:18:32;;;;;;;5.53;1.30;;;11.30;86.30;;;;;;5005108;28;20445;-75
2024/01/24 05:21:02;;;;;;;5.37;1.37;;;11.40;86.30;;;;;;5005951;28;20476;-75
2024/01/24 05:23:30;;;;;;;4.90;1.17;;;11.40;86.20;;;;;;5004372;28;20453;-74
2024/01/24 05:25:58;;;;;;;9.10;1.07;;;11.40;86.20;;;;;;5007153;28;20480;-74
2024/01/24 05:28:26;;;;;;;3.60;0.70;;;11.40;86.20;;;;;;5005095;28;20465;-74
2024/01/24 05:30:54;;;;;;;4.07;1.07;;;11.50;86.20;;;;;;5004763;28;20547;-75
2024/01/24 05:33:23;;;;;;;3.00;0.70;;;11.50;86.30;;;;;;5011386;28;20555;-75
2024/01/24 05:35:53;;;;;;;4.43;0.97;;;11.50;86.20;;;;;;5004638;28;20484;-75
2024/01/24 05:38:21;;;;;;;4.10;0.77;;;11.50;86.30;;;;;;5020597;28;20990;-74
2024/01/24 05:40:49;;;;;;;3.27;0.80;;;11.60;86.30;;;;;;4998149;28;20787;-75
2024/01/24 05:43:17;;;;;;;3.37;0.80;;;11.60;86.20;;;;;;5004408;28;20558;-74
2024/01/24 05:45:49;;;;;;;3.60;0.83;;;11.60;86.20;;;;;;5005000;28;20544;-75
2024/01/24 05:48:18;;;;;;;4.20;0.90;;;11.70;86.20;;;;;;5002463;28;21117;-76
2024/01/24 05:50:46;;;;;;;4.00;0.73;;;11.80;86.20;;;;;;5003627;28;20530;-76
2024/01/24 05:53:15;;;;;;;4.10;0.80;;;11.80;86.10;;;;;;5000294;28;20544;-75
2024/01/24 05:55:43;;;;;;;4.20;0.80;;;11.80;86.00;;;;;;4998254;28;20905;-76
2024/01/24 05:58:11;;;;;;;5.50;0.93;;;11.90;86.00;;;;;;4999840;28;20453;-76
2024/01/24 06:00:39;;;;;;;3.80;0.70;;;11.90;86.00;;;;;;5001251;28;20485;-75
2024/01/24 06:03:07;;;;;;;6.33;0.80;;;11.90;86.00;;;;;;5004964;28;20475;-76
2024/01/24 06:05:35;;;;;;;3.87;0.83;;;11.90;85.90;;;;;;5007133;28;20449;-76
2024/01/24 06:08:05;;;;;;;6.13;0.70;;;12.00;85.90;;;;;;5009148;28;20457;-76
2024/01/24 06:10:35;;;;;;;5.00;0.73;;;12.00;85.80;;;;;;5003191;28;20468;-76
2024/01/24 06:13:03;;;;;;;3.93;0.80;;;12.00;85.70;;;;;;5017136;28;20557;-76
2024/01/24 06:15:31;;;;;;;3.80;0.80;;;12.00;85.80;;;;;;5003949;28;20444;-76
2024/01/24 06:17:59;;;;;;;5.20;0.80;;;12.00;85.80;;;;;;4999210;28;20473;-76
2024/01/24 06:20:27;;;;;;;3.57;0.60;;;12.00;85.80;;;;;;4998896;28;20520;-76
2024/01/24 06:22:55;;;;;;;4.07;0.77;;;12.00;85.80;;;;;;5003171;28;20464;-76
2024/01/24 06:25:25;;;;;;;6.10;1.07;;;12.00;85.90;;;;;;5003563;28;20944;-75
2024/01/24 06:27:54;;;;;;;3.20;0.73;;;12.00;85.90;;;;;;5003320;28;20809;-76
2024/01/24 06:30:23;;;;;;;3.77;0.70;;;12.00;85.90;;;;;;5018679;28;20499;-76
2024/01/24 06:32:53;;;;;;;6.00;0.93;;;12.00;85.90;;;;;;5002811;28;20460;-76
2024/01/24 06:35:20;;;;;;;3.40;0.70;;;12.10;86.20;;;;;;5002994;28;20465;-76
2024/01/24 06:37:51;;;;;;;3.17;0.77;;;12.10;86.20;;;;;;5014138;28;20994;-76
2024/01/24 06:40:20;;;;;;;5.87;1.00;;;12.10;86.00;;;;;;5000014;28;20535;-76
2024/01/24 06:42:48;;;;;;;3.27;0.60;;;12.10;86.00;;;;;;5002134;28;20457;-76
2024/01/24 06:45:18;;;;;;;3.37;1.03;;;12.10;86.00;;;;;;5001888;28;20464;-76
2024/01/24 06:47:46;;;;;;;3.40;0.87;;;12.20;86.00;;;;;;5002291;28;21100;-76
2024/01/24 06:50:16;;;;;;;4.57;0.60;;;12.20;86.00;;;;;;5002338;28;20469;-76
2024/01/24 06:52:45;;;;;;;4.40;0.70;;;12.20;86.00;;;;;;4998836;28;20934;-76
2024/01/24 06:55:15;;;;;;;4.43;0.80;;;12.20;86.10;;;;;;5003705;28;20547;-76
2024/01/24 06:57:42;;;;;;;3.80;1.37;;;12.20;86.00;;;;;;5005875;28;20480;-76
2024/01/24 07:00:11;;;;;;;4.43;0.83;;;12.20;86.10;;;;;;5000692;28;20496;-76
2024/01/24 07:02:41;;;;;;;4.00;0.60;;;12.20;86.30;;;;;;5002116;28;20880;-76
2024/01/24 07:05:09;;;;;;;4.87;0.90;;;12.20;86.30;;;;;;5001426;28;20460;-76
2024/01/24 07:07:38;;;;;;;3.80;0.80;;;12.20;86.30;;;;;;5001954;28;21235;-76
2024/01/24 07:10:10;;;;;;;3.20;0.70;;;12.20;86.20;;;;;;4999637;28;20453;-75
2024/01/24 07:12:44;;;;;;;4.53;0.80;;;12.20;86.20;;;;;;4999525;28;20470;-76
2024/01/24 07:15:15;;;;;;;3.60;0.90;;;12.10;86.40;;;;;;4998537;28;20484;-76
2024/01/24 07:17:44;;;;;;;3.00;0.60;;;12.20;86.30;;;;;;4998014;28;20477;-76
2024/01/24 07:20:13;;;;;;;4.23;0.90;;;12.20;86.50;;;;;;5001238;28;20457;-76
2024/01/24 07:22:41;;;;;;;4.30;0.80;;;12.20;86.50;;;;;;5003661;28;20457;-75
2024/01/24 07:25:09;;;;;;;3.40;0.83;;;12.20;86.70;;;;;;5001350;28;20448;-76
2024/01/24 07:27:37;;;;;;;3.13;0.70;;;12.20;86.70;;;;;;4999617;28;20508;-76
2024/01/24 07:30:07;;;;;;;3.30;0.60;;;12.20;86.70;;;;;;4998110;28;20556;-76
2024/01/24 07:32:35;;;;;;;8.30;0.70;;;12.20;86.60;;;;;;5000283;28;20481;-76
2024/01/24 07:35:05;;;;;;;3.63;0.70;;;12.10;86.70;;;;;;5003765;28;20518;-76
2024/01/24 07:37:32;;;;;;;3.57;0.50;;;12.10;86.90;;;;;;4999697;28;20491;-76
2024/01/24 07:40:02;;;;;;;3.80;0.63;;;12.20;86.90;;;;;;5014552;28;20466;-76
2024/01/24 07:42:30;;;;;;;3.03;0.60;;;12.20;86.90;;;;;;4992921;28;20930;-75
2024/01/24 07:44:59;;;;;;;3.37;0.77;;;12.20;87.00;;;;;;5001353;28;20460;-76
2024/01/24 07:47:28;;;;;;;3.10;0.60;;;12.20;87.00;;;;;;5014053;28;20475;-76
2024/01/24 07:49:56;;;;;;;3.03;0.60;;;12.20;87.10;;;;;;5000618;28;20460;-76
2024/01/24 07:52:26;;;;;;;3.10;0.50;;;12.20;87.30;;;;;;5012002;28;20461;-76
2024/01/24 07:55:09;;;;;;;3.73;0.60;;;12.20;87.30;;;;;;5004512;28;20488;-76
2024/01/24 07:57:38;;;;;;;3.00;0.57;;;12.20;87.20;;;;;;5007914;28;20479;-76
2024/01/24 08:00:07;;;;;;;3.50;0.60;;;12.20;87.20;;;;;;5002839;28;20464;-76
2024/01/24 08:02:35;;;;;;;3.33;0.60;;;12.20;87.20;;;;;;5003727;28;20547;-76
2024/01/24 08:05:05;;;;;;;2.77;0.47;;;12.20;87.20;;;;;;5007489;28;20456;-76
2024/01/24 08:07:36;;;;;;;3.50;0.50;;;12.20;87.30;;;;;;5006487;28;20483;-76
2024/01/24 08:10:06;;;;;;;2.73;0.37;;;12.30;87.30;;;;;;4999709;28;20460;-76
2024/01/24 08:12:34;;;;;;;3.17;0.50;;;12.30;87.40;;;;;;5000913;28;20844;-76
2024/01/24 08:15:05;;;;;;;2.87;0.43;;;12.30;87.40;;;;;;5005331;28;20449;-76
2024/01/24 08:17:36;;;;;;;6.40;0.50;;;12.30;87.40;;;;;;5005277;28;20542;-76
2024/01/24 08:20:08;;;;;;;3.07;0.43;;;12.40;87.50;;;;;;5019507;28;20464;-76
2024/01/24 08:22:38;;;;;;;2.70;0.40;;;12.40;87.40;;;;;;5002905;28;20470;-76
2024/01/24 08:25:07;;;;;;;3.23;0.50;;;12.40;87.40;;;;;;5004962;28;20452;-76
2024/01/24 08:27:36;;;;;;;2.70;0.40;;;12.40;87.30;;;;;;5018183;28;20464;-76
2024/01/24 08:30:06;;;;;;;2.93;0.50;;;12.40;87.30;;;;;;5001869;28;20510;-76
2024/01/24 08:32:33;;;;;;;3.53;0.43;;;12.40;87.50;;;;;;5004051;28;20547;-75
2024/01/24 08:35:02;;;;;;;2.70;0.40;;;12.40;87.60;;;;;;5008637;28;20453;-74
2024/01/24 08:37:31;;;;;;;3.60;0.43;;;12.40;87.70;;;;;;5006099;28;20512;-74
2024/01/24 08:40:00;;;;;;;3.20;0.70;;;12.40;87.70;;;;;;5002832;28;20457;-76
2024/01/24 08:42:28;;;;;;;2.80;0.50;;;12.40;87.80;;;;;;5018414;28;20460;-75
2024/01/24 08:44:56;;;;;;;2.70;0.40;;;12.40;87.70;;;;;;5010079;28;20484;-76
2024/01/24 08:47:24;;;;;;;3.10;0.57;;;12.40;87.80;;;;;;4997561;28;21240;-76
2024/01/24 08:49:53;;;;;;;4.40;0.60;;;12.40;87.80;;;;;;5004211;28;20492;-76
2024/01/24 08:52:22;;;;;;;2.80;0.50;;;12.40;87.80;;;;;;5003858;28;20460;-76
2024/01/24 08:54:50;;;;;;;3.10;0.60;;;12.40;87.80;;;;;;5001825;28;20453;-77
2024/01/24 08:57:20;;;;;;;3.50;0.50;;;12.50;87.90;;;;;;5003022;28;20477;-77
2024/01/24 08:59:48;;;;;;;3.47;0.53;;;12.50;87.90;;;;;;5004774;28;21000;-76
2024/01/24 09:02:17;;;;;;;6.00;0.63;;;12.50;87.70;;;;;;5000888;28;20520;-76
2024/01/24 09:04:46;;;;;;;4.50;0.63;;;12.60;87.50;;;;;;5001868;28;20461;-76
2024/01/24 09:07:14;;;;;;;4.07;0.50;;;12.60;87.40;;;;;;5005985;28;20452;-76
2024/01/24 09:09:42;;;;;;;6.20;0.70;;;12.60;87.10;;;;;;4999482;28;20469;-76
2024/01/24 09:12:10;;;;;;;4.53;0.60;;;12.60;87.10;;;;;;5002562;28;20492;-74
2024/01/24 09:14:39;;;;;;;3.40;0.53;;;12.70;86.90;;;;;;5003074;28;20467;-74
2024/01/24 09:17:08;;;;;;;3.40;0.60;;;12.70;86.80;;;;;;5002437;28;20803;-76
2024/01/24 09:19:38;;;;;;;3.43;0.70;;;12.70;86.60;;;;;;5003245;28;20523;-76
2024/01/24 09:22:06;;;;;;;7.80;0.73;;;12.70;86.40;;;;;;5003121;28;20845;-76
2024/01/24 09:24:34;;;;;;;3.93;0.57;;;12.70;86.30;;;;;;5001753;28;20488;-76
2024/01/24 09:27:03;;;;;;;4.07;0.70;;;12.70;86.10;;;;;;5004936;28;20453;-76
2024/01/24 09:29:31;;;;;;;3.87;0.43;;;12.70;85.90;;;;;;4996753;28;20544;-76
2024/01/24 09:32:00;;;;;;;4.73;0.80;;;12.70;85.80;;;;;;4981764;28;20558;-76
2024/01/24 09:34:28;;;;;;;4.13;1.07;;;12.80;85.70;;;;;;4980863;28;20807;-76
2024/01/24 09:36:57;;;;;;;3.53;0.50;;;12.80;85.60;;;;;;5000044;28;20457;-75
2024/01/24 09:39:25;;;;;;;4.20;0.60;;;12.80;85.40;;;;;;4983314;28;20477;-76
2024/01/24 09:41:53;;;;;;;2.90;0.50;;;12.80;85.50;;;;;;4985391;28;20450;-76
2024/01/24 09:44:24;;;;;;;3.30;0.50;;;12.70;85.60;;;;;;4984179;28;20454;-76
2024/01/24 09:46:53;;;;;;;2.73;0.43;;;12.70;85.80;;;;;;4983472;28;20462;-76
2024/01/24 09:49:23;;;;;;;4.10;0.63;;;12.70;85.90;;;;;;4982302;28;20541;-76
2024/01/24 09:51:54;;;;;;;3.40;0.40;;;12.70;85.90;;;;;;4981175;28;20548;-77
2024/01/24 09:54:24;;;;;;;2.90;0.60;;;12.70;85.90;;;;;;4986662;28;20858;-76
2024/01/24 09:56:52;;;;;;;4.90;1.00;;;12.70;85.80;;;;;;4981126;28;20871;-76
2024/01/24 09:59:20;;;;;;;4.77;0.63;;;12.70;85.70;;;;;;4980996;28;20946;-76
2024/01/24 10:01:50;;;;;;;4.20;0.83;;;12.70;85.40;;;;;;4991995;28;20981;-76
2024/01/24 10:04:19;;;;;;;4.77;0.67;;;12.70;85.00;;;;;;5002277;28;21268;-76
2024/01/24 10:06:49;;;;;;;4.30;0.77;;;12.70;84.60;;;;;;5000997;28;20449;-76
2024/01/24 10:09:19;;;;;;;5.23;0.70;;;12.70;84.40;;;;;;4999484;28;20519;-76
2024/01/24 10:11:47;;;;;;;5.90;1.17;;;12.80;84.20;;;;;;5004964;28;21250;-76
2024/01/24 10:14:15;;;;;;;3.43;0.70;;;12.80;84.00;;;;;;5002200;28;20453;-76
2024/01/24 10:16:43;;;;;;;3.67;0.57;;;12.90;83.70;;;;;;5012640;28;20922;-76
2024/01/24 10:19:11;;;;;;;6.00;0.80;;;12.90;83.90;;;;;;5002068;28;20473;-76
2024/01/24 10:21:41;;;;;;;5.80;0.87;;;13.00;83.40;;;;;;5002476;28;20461;-76
2024/01/24 10:24:11;;;;;;;5.10;0.80;;;13.10;83.10;;;;;;5003216;28;20444;-76
2024/01/24 10:26:39;;;;;;;9.70;1.33;;;13.10;82.60;;;;;;5002143;28;21502;-76
2024/01/24 10:29:08;;;;;;;7.13;0.90;;;13.10;82.40;;;;;;5003140;28;20453;-76
2024/01/24 10:31:36;;;;;;;5.70;0.80;;;13.10;82.20;;;;;;4998731;28;20572;-76
2024/01/24 10:34:04;;;;;;;5.30;1.13;;;13.10;81.70;;;;;;5002702;28;20479;-76
2024/01/24 10:36:33;;;;;;;4.80;0.97;;;13.10;81.50;;;;;;5018983;28;20484;-76
2024/01/24 10:39:03;;;;;;;4.33;0.80;;;13.10;81.20;;;;;;5001258;28;21060;-76
2024/01/24 10:41:37;;;;;;;5.10;0.77;;;13.10;81.00;;;;;;5012663;28;20603;-76
2024/01/24 10:44:07;;;;;;;4.87;0.60;;;13.10;80.60;;;;;;5004142;28;20941;-76
2024/01/24 10:46:36;;;;;;;4.10;0.77;;;13.10;80.50;;;;;;4997997;28;20576;-76
2024/01/24 10:49:05;;;;;;;4.40;0.83;;;13.10;80.50;;;;;;4999584;28;20456;-76
2024/01/24 10:51:34;;;;;;;5.70;1.10;;;13.20;80.50;;;;;;4998647;28;20487;-75
2024/01/24 10:54:05;;;;;;;3.23;0.60;;;13.20;80.30;;;;;;5000259;28;20866;-76
2024/01/24 10:56:35;;;;;;;4.47;0.90;;;13.20;80.30;;;;;;5018948;28;20453;-76
2024/01/24 10:59:04;;;;;;;3.53;0.67;;;13.20;80.00;;;;;;4999550;28;20474;-76
2024/01/24 11:01:33;;;;;;;4.17;1.00;;;13.20;80.00;;;;;;4998350;28;20560;-76
2024/01/24 11:04:04;;;;;;;7.33;1.07;;;13.20;80.00;;;;;;4998786;28;20457;-76
2024/01/24 11:06:42;;;;;;;9.33;1.30;;;13.30;80.00;;;;;;5001591;28;20518;-76
2024/01/24 11:09:20;;;;;;;5.67;0.80;;;13.30;79.90;;;;;;5001290;28;20444;-78
2024/01/24 11:11:52;;;;;;;5.87;1.10;;;13.30;79.80;;;;;;5001637;28;20460;-76
2024/01/24 11:14:29;;;;;;;7.17;1.30;;;13.30;79.70;;;;;;5001356;28;20474;-76
2024/01/24 11:16:59;;;;;;;6.73;1.33;;;13.40;79.60;;;;;;4998419;28;20469;-76
2024/01/24 11:19:28;;;;;;;9.07;1.97;;;13.40;79.30;;;;;;5000299;28;20890;-76
2024/01/24 11:22:01;;;;;;;5.80;1.00;;;13.40;78.80;;;;;;5002523;28;20491;-76
2024/01/24 11:24:52;;;;;;;8.10;1.10;;;13.50;78.40;;;;;;5000909;28;20905;-76
2024/01/24 11:27:36;;;;;;;7.40;1.50;;;13.40;77.90;;;;;;5003854;28;20467;-76
2024/01/24 11:30:17;;;;;;;7.87;1.80;;;13.40;77.90;;;;;;5009677;28;20452;-77
2024/01/24 11:33:00;;;;;;;4.90;1.07;;;13.40;77.80;;;;;;5007973;28;20476;-76
2024/01/24 11:35:32;;;;;;;8.00;1.53;;;13.40;77.30;;;;;;5003243;28;20455;-76
2024/01/24 11:38:02;;;;;;;9.97;1.30;;;13.30;77.10;;;;;;5007790;28;20523;-76
2024/01/24 11:40:35;;;;;;;7.60;1.80;;;13.30;77.10;;;;;;5021071;28;20792;-76
2024/01/24 11:43:05;;;;;;;7.33;1.60;;;13.30;76.90;;;;;;5022603;28;20491;-76
2024/01/24 11:45:35;;;;;;;8.43;1.43;;;13.30;76.70;;;;;;5006023;28;20463;-76
2024/01/24 11:48:08;;;;;;;11.30;1.77;;;13.30;76.70;;;;;;5007267;28;20470;-76
2024/01/24 11:50:36;;;;;;;7.53;1.93;;;13.30;76.60;;;;;;5006172;28;20456;-76
2024/01/24 11:53:05;;;;;;;12.67;1.90;;;13.30;76.40;;;;;;5023439;28;20458;-75
2024/01/24 11:55:34;;;;;;;6.57;1.43;;;13.30;76.50;;;;;;5020767;28;20551;-76
2024/01/24 11:58:03;;;;;;;9.63;1.50;;;13.30;76.50;;;;;;5007648;28;20462;-76
2024/01/24 12:00:33;;;;;;;10.10;1.80;;;13.30;76.60;;;;;;5006334;28;20487;-76
2024/01/24 12:03:01;;;;;;;8.00;2.20;;;13.30;76.50;;;;;;4987911;28;20460;-76
2024/01/24 12:05:29;;;;;;;8.80;1.37;;;13.30;76.20;;;;;;5006345;28;20555;-75
2024/01/24 12:07:57;;;;;;;6.80;1.63;;;13.30;76.20;;;;;;4986499;28;20909;-76
2024/01/24 12:10:25;;;;;;;7.97;2.07;;;13.20;75.90;;;;;;4988637;28;20946;-75
2024/01/24 12:12:54;;;;;;;10.07;2.00;;;13.20;75.70;;;;;;5003848;28;20568;-76
2024/01/24 12:15:22;;;;;;;7.17;1.73;;;13.20;75.50;;;;;;4993376;28;20458;-76
2024/01/24 12:17:51;;;;;;;9.23;2.30;;;13.20;75.40;;;;;;4993593;28;20461;-76
2024/01/24 12:20:21;;;;;;;7.60;1.87;;;13.10;75.30;;;;;;4990906;28;20963;-76
2024/01/24 12:22:50;;;;;;;13.77;2.40;;;13.10;75.30;;;;;;4987109;28;20548;-75
2024/01/24 12:25:18;;;;;;;8.93;2.30;;;13.10;75.20;;;;;;5004485;28;20792;-76
2024/01/24 12:27:47;;;;;;;11.40;3.23;;;13.10;75.00;;;;;;5002894;28;20477;-76
2024/01/24 12:30:15;;;;;;;12.73;2.50;;;13.10;75.00;;;;;;5006516;28;20473;-76
2024/01/24 12:32:43;;;;;;;11.90;1.90;;;13.00;75.00;;;;;;5005467;28;20935;-76
2024/01/24 12:35:14;;;;;;;8.30;1.80;;;13.00;74.90;;;;;;5006651;28;20457;-76
2024/01/24 12:37:42;;;;;;;9.57;2.37;;;13.00;74.80;;;;;;5008656;28;20467;-76
2024/01/24 12:40:12;;;;;;;9.70;2.40;;;13.00;74.70;;;;;;5003186;28;20526;-76
2024/01/24 12:42:40;;;;;;;16.27;3.23;;;12.90;74.80;;;;;;5001486;28;20452;-75
2024/01/24 12:45:11;;;;;;;10.83;2.50;;;13.00;74.50;;;;;;5003054;28;20465;-76
2024/01/24 12:47:39;;;;;;;12.80;2.60;;;12.90;74.50;;;;;;5001253;28;20452;-76
2024/01/24 12:50:10;;;;;;;13.23;2.53;;;12.90;74.40;;;;;;5017287;28;20456;-76
2024/01/24 12:52:41;;;;;;;17.70;3.73;;;12.90;74.30;;;;;;5002097;28;20534;-76
2024/01/24 12:55:12;;;;;;;15.33;3.33;;;12.90;74.20;;;;;;5004103;28;20981;-76